Damascus, Virginia
Current Conditions -  °F | °C
As of 11:15 AM on Saturday 25 Oct 2014 (Local Time) from KVJI Reporting Station
Clear Clear  
Wind Chill: 56°   Ceiling: Unl
Heat Index: 56°   Visibility: 10mi
Dew Point: 45°   Wind: 6mph
Humidity: 67%   Direction: 250°WSW
Pressure: 30.1"   Gusts: NA
Location:  36.63°N, 81.78°W
Report Text: KVJI 251515Z AUTO 25005KT 10SM CLR 14/07 A3010 RMK AO2 T01350074
Loading
Personal Weather Stations






























Interactive Weather Map
Tropical Storm Tracking
New forecast layout! Learn more

10-Day Weather Forecast

Advertisements
Track Severe Weather on mobile